sensor_id;sensor_type;location;lat;lon;timestamp;P1;durP1;ratioP1;P2;durP2;ratioP2
11582;SDS011;34299;50.820;4.548;2022-12-07T00:00:49;11.00;;;7.43;;
11582;SDS011;34299;50.820;4.548;2022-12-07T00:03:17;9.57;;;6.53;;
11582;SDS011;34299;50.820;4.548;2022-12-07T00:05:44;12.00;;;7.77;;
11582;SDS011;34299;50.820;4.548;2022-12-07T00:08:12;15.07;;;8.90;;
11582;SDS011;34299;50.820;4.548;2022-12-07T00:10:40;10.07;;;6.67;;
11582;SDS011;34299;50.820;4.548;2022-12-07T00:13:07;12.57;;;8.10;;
11582;SDS011;34299;50.820;4.548;2022-12-07T00:15:35;8.30;;;5.90;;
11582;SDS011;34299;50.820;4.548;2022-12-07T00:18:02;10.10;;;6.47;;
11582;SDS011;34299;50.820;4.548;2022-12-07T00:20:29;9.83;;;6.10;;
11582;SDS011;34299;50.820;4.548;2022-12-07T00:22:57;8.93;;;6.17;;
11582;SDS011;34299;50.820;4.548;2022-12-07T00:25:25;13.57;;;6.73;;
11582;SDS011;34299;50.820;4.548;2022-12-07T00:27:52;12.37;;;7.07;;
11582;SDS011;34299;50.820;4.548;2022-12-07T00:30:21;6.90;;;5.33;;
11582;SDS011;34299;50.820;4.548;2022-12-07T00:32:48;10.50;;;6.30;;
11582;SDS011;34299;50.820;4.548;2022-12-07T00:35:16;11.20;;;5.87;;
11582;SDS011;34299;50.820;4.548;2022-12-07T00:37:43;11.00;;;7.17;;
11582;SDS011;34299;50.820;4.548;2022-12-07T00:40:10;13.20;;;7.70;;
11582;SDS011;34299;50.820;4.548;2022-12-07T00:42:39;9.30;;;6.60;;
11582;SDS011;34299;50.820;4.548;2022-12-07T00:45:07;10.97;;;6.77;;
11582;SDS011;34299;50.820;4.548;2022-12-07T00:47:34;9.33;;;7.47;;
11582;SDS011;34299;50.820;4.548;2022-12-07T00:50:02;13.40;;;7.23;;
11582;SDS011;34299;50.820;4.548;2022-12-07T00:52:29;12.83;;;7.20;;
11582;SDS011;34299;50.820;4.548;2022-12-07T00:54:56;10.23;;;6.37;;
11582;SDS011;34299;50.820;4.548;2022-12-07T00:57:23;9.43;;;6.77;;
11582;SDS011;34299;50.820;4.548;2022-12-07T00:59:52;13.10;;;6.13;;
11582;SDS011;34299;50.820;4.548;2022-12-07T01:02:20;8.83;;;6.23;;
11582;SDS011;34299;50.820;4.548;2022-12-07T01:04:48;14.30;;;7.47;;
11582;SDS011;34299;50.820;4.548;2022-12-07T01:07:15;11.63;;;6.60;;
11582;SDS011;34299;50.820;4.548;2022-12-07T01:09:42;9.93;;;6.87;;
11582;SDS011;34299;50.820;4.548;2022-12-07T01:12:10;7.27;;;5.20;;
11582;SDS011;34299;50.820;4.548;2022-12-07T01:14:37;13.43;;;7.80;;
11582;SDS011;34299;50.820;4.548;2022-12-07T01:17:06;13.03;;;7.70;;
11582;SDS011;34299;50.820;4.548;2022-12-07T01:19:33;18.40;;;6.97;;
11582;SDS011;34299;50.820;4.548;2022-12-07T01:22:00;8.00;;;5.70;;
11582;SDS011;34299;50.820;4.548;2022-12-07T01:24:27;11.90;;;7.80;;
11582;SDS011;34299;50.820;4.548;2022-12-07T01:26:54;8.40;;;6.37;;
11582;SDS011;34299;50.820;4.548;2022-12-07T01:29:21;15.27;;;6.23;;
11582;SDS011;34299;50.820;4.548;2022-12-07T01:31:49;10.70;;;7.20;;
11582;SDS011;34299;50.820;4.548;2022-12-07T01:34:17;10.60;;;6.73;;
11582;SDS011;34299;50.820;4.548;2022-12-07T01:36:45;11.53;;;7.40;;
11582;SDS011;34299;50.820;4.548;2022-12-07T01:39:12;15.07;;;9.13;;
11582;SDS011;34299;50.820;4.548;2022-12-07T01:41:40;11.93;;;6.50;;
11582;SDS011;34299;50.820;4.548;2022-12-07T01:44:10;11.27;;;6.93;;
11582;SDS011;34299;50.820;4.548;2022-12-07T01:46:37;10.53;;;6.57;;
11582;SDS011;34299;50.820;4.548;2022-12-07T01:49:05;6.90;;;5.90;;
11582;SDS011;34299;50.820;4.548;2022-12-07T01:51:34;11.53;;;6.87;;
11582;SDS011;34299;50.820;4.548;2022-12-07T01:54:04;8.23;;;6.03;;
11582;SDS011;34299;50.820;4.548;2022-12-07T01:56:31;14.20;;;7.90;;
11582;SDS011;34299;50.820;4.548;2022-12-07T01:58:59;8.50;;;6.20;;
11582;SDS011;34299;50.820;4.548;2022-12-07T02:01:27;12.97;;;7.33;;
11582;SDS011;34299;50.820;4.548;2022-12-07T02:03:55;11.20;;;7.53;;
11582;SDS011;34299;50.820;4.548;2022-12-07T02:06:24;15.60;;;7.80;;
11582;SDS011;34299;50.820;4.548;2022-12-07T02:08:53;16.33;;;9.53;;
11582;SDS011;34299;50.820;4.548;2022-12-07T02:11:20;13.20;;;7.10;;
11582;SDS011;34299;50.820;4.548;2022-12-07T02:13:48;14.13;;;7.53;;
11582;SDS011;34299;50.820;4.548;2022-12-07T02:16:19;9.87;;;7.30;;
11582;SDS011;34299;50.820;4.548;2022-12-07T02:18:55;14.57;;;7.87;;
11582;SDS011;34299;50.820;4.548;2022-12-07T02:21:26;12.97;;;7.47;;
11582;SDS011;34299;50.820;4.548;2022-12-07T02:24:06;14.60;;;8.37;;
11582;SDS011;34299;50.820;4.548;2022-12-07T02:26:43;12.17;;;7.93;;
11582;SDS011;34299;50.820;4.548;2022-12-07T02:29:15;12.50;;;7.23;;
11582;SDS011;34299;50.820;4.548;2022-12-07T02:31:46;9.20;;;6.33;;
11582;SDS011;34299;50.820;4.548;2022-12-07T02:34:18;9.77;;;7.03;;
11582;SDS011;34299;50.820;4.548;2022-12-07T02:36:50;9.27;;;5.30;;
11582;SDS011;34299;50.820;4.548;2022-12-07T02:39:19;12.57;;;6.50;;
11582;SDS011;34299;50.820;4.548;2022-12-07T02:41:47;10.53;;;5.93;;
11582;SDS011;34299;50.820;4.548;2022-12-07T02:44:17;10.90;;;7.33;;
11582;SDS011;34299;50.820;4.548;2022-12-07T02:46:47;10.13;;;7.30;;
11582;SDS011;34299;50.820;4.548;2022-12-07T02:49:16;7.80;;;6.47;;
11582;SDS011;34299;50.820;4.548;2022-12-07T02:51:45;17.50;;;7.87;;
11582;SDS011;34299;50.820;4.548;2022-12-07T02:54:13;11.93;;;6.73;;
11582;SDS011;34299;50.820;4.548;2022-12-07T02:56:43;11.30;;;7.53;;
11582;SDS011;34299;50.820;4.548;2022-12-07T02:59:15;10.87;;;6.57;;
11582;SDS011;34299;50.820;4.548;2022-12-07T03:01:46;10.43;;;6.93;;
11582;SDS011;34299;50.820;4.548;2022-12-07T03:04:20;9.00;;;6.40;;
11582;SDS011;34299;50.820;4.548;2022-12-07T03:06:51;9.57;;;6.20;;
11582;SDS011;34299;50.820;4.548;2022-12-07T03:09:21;12.20;;;7.33;;
11582;SDS011;34299;50.820;4.548;2022-12-07T03:11:52;8.47;;;5.73;;
11582;SDS011;34299;50.820;4.548;2022-12-07T03:14:23;11.17;;;6.67;;
11582;SDS011;34299;50.820;4.548;2022-12-07T03:16:53;12.50;;;6.10;;
11582;SDS011;34299;50.820;4.548;2022-12-07T03:19:24;10.40;;;5.70;;
11582;SDS011;34299;50.820;4.548;2022-12-07T03:21:54;8.03;;;5.10;;
11582;SDS011;34299;50.820;4.548;2022-12-07T03:24:24;10.53;;;6.77;;
11582;SDS011;34299;50.820;4.548;2022-12-07T03:26:53;9.17;;;6.07;;
11582;SDS011;34299;50.820;4.548;2022-12-07T03:29:27;11.30;;;6.47;;
11582;SDS011;34299;50.820;4.548;2022-12-07T03:31:58;7.77;;;5.90;;
11582;SDS011;34299;50.820;4.548;2022-12-07T03:34:28;9.17;;;5.63;;
11582;SDS011;34299;50.820;4.548;2022-12-07T03:36:57;7.83;;;6.23;;
11582;SDS011;34299;50.820;4.548;2022-12-07T03:39:27;7.73;;;5.83;;
11582;SDS011;34299;50.820;4.548;2022-12-07T03:41:56;10.17;;;5.83;;
11582;SDS011;34299;50.820;4.548;2022-12-07T03:44:24;10.00;;;7.60;;
11582;SDS011;34299;50.820;4.548;2022-12-07T03:46:53;8.83;;;6.03;;
11582;SDS011;34299;50.820;4.548;2022-12-07T03:49:25;9.73;;;5.63;;
11582;SDS011;34299;50.820;4.548;2022-12-07T03:51:54;8.70;;;5.93;;
11582;SDS011;34299;50.820;4.548;2022-12-07T03:54:23;10.83;;;6.50;;
11582;SDS011;34299;50.820;4.548;2022-12-07T03:56:51;8.87;;;5.83;;
11582;SDS011;34299;50.820;4.548;2022-12-07T03:59:19;11.17;;;5.13;;
11582;SDS011;34299;50.820;4.548;2022-12-07T04:01:51;10.77;;;6.50;;
11582;SDS011;34299;50.820;4.548;2022-12-07T04:04:19;6.00;;;4.60;;
11582;SDS011;34299;50.820;4.548;2022-12-07T04:06:48;9.33;;;4.63;;
11582;SDS011;34299;50.820;4.548;2022-12-07T04:09:16;8.97;;;5.17;;
11582;SDS011;34299;50.820;4.548;2022-12-07T04:11:44;7.80;;;5.47;;
11582;SDS011;34299;50.820;4.548;2022-12-07T04:14:11;7.97;;;5.30;;
11582;SDS011;34299;50.820;4.548;2022-12-07T04:16:44;7.97;;;5.30;;
11582;SDS011;34299;50.820;4.548;2022-12-07T04:19:11;7.97;;;4.83;;
11582;SDS011;34299;50.820;4.548;2022-12-07T04:21:39;5.20;;;4.33;;
11582;SDS011;34299;50.820;4.548;2022-12-07T04:24:07;7.97;;;5.13;;
11582;SDS011;34299;50.820;4.548;2022-12-07T04:26:35;11.07;;;5.40;;
11582;SDS011;34299;50.820;4.548;2022-12-07T04:29:02;8.03;;;5.10;;
11582;SDS011;34299;50.820;4.548;2022-12-07T04:31:29;9.83;;;5.50;;
11582;SDS011;34299;50.820;4.548;2022-12-07T04:33:56;6.57;;;4.37;;
11582;SDS011;34299;50.820;4.548;2022-12-07T04:36:24;6.13;;;4.83;;
11582;SDS011;34299;50.820;4.548;2022-12-07T04:38:52;6.97;;;4.53;;
11582;SDS011;34299;50.820;4.548;2022-12-07T04:41:22;6.40;;;4.57;;
11582;SDS011;34299;50.820;4.548;2022-12-07T04:43:53;9.50;;;4.87;;
11582;SDS011;34299;50.820;4.548;2022-12-07T04:46:20;6.90;;;4.83;;
11582;SDS011;34299;50.820;4.548;2022-12-07T04:48:48;8.60;;;4.47;;
11582;SDS011;34299;50.820;4.548;2022-12-07T04:51:15;7.20;;;4.87;;
11582;SDS011;34299;50.820;4.548;2022-12-07T04:53:45;7.77;;;5.27;;
11582;SDS011;34299;50.820;4.548;2022-12-07T04:56:13;16.10;;;9.00;;
11582;SDS011;34299;50.820;4.548;2022-12-07T04:58:42;15.17;;;10.63;;
11582;SDS011;34299;50.820;4.548;2022-12-07T05:01:09;13.93;;;9.50;;
11582;SDS011;34299;50.820;4.548;2022-12-07T05:03:36;15.97;;;9.83;;
11582;SDS011;34299;50.820;4.548;2022-12-07T05:06:04;17.40;;;10.37;;
11582;SDS011;34299;50.820;4.548;2022-12-07T05:08:32;15.80;;;10.60;;
11582;SDS011;34299;50.820;4.548;2022-12-07T05:10:59;16.63;;;10.17;;
11582;SDS011;34299;50.820;4.548;2022-12-07T05:13:26;16.00;;;11.03;;
11582;SDS011;34299;50.820;4.548;2022-12-07T05:15:55;16.80;;;11.07;;
11582;SDS011;34299;50.820;4.548;2022-12-07T05:18:22;16.73;;;11.10;;
11582;SDS011;34299;50.820;4.548;2022-12-07T05:20:49;18.47;;;11.97;;
11582;SDS011;34299;50.820;4.548;2022-12-07T05:23:17;18.53;;;12.37;;
11582;SDS011;34299;50.820;4.548;2022-12-07T05:25:44;21.90;;;12.40;;
11582;SDS011;34299;50.820;4.548;2022-12-07T05:28:11;19.40;;;12.40;;
11582;SDS011;34299;50.820;4.548;2022-12-07T05:30:39;19.53;;;12.53;;
11582;SDS011;34299;50.820;4.548;2022-12-07T05:33:07;18.80;;;12.20;;
11582;SDS011;34299;50.820;4.548;2022-12-07T05:35:34;17.23;;;11.67;;
11582;SDS011;34299;50.820;4.548;2022-12-07T05:38:02;21.10;;;12.37;;
11582;SDS011;34299;50.820;4.548;2022-12-07T05:40:30;18.10;;;12.63;;
11582;SDS011;34299;50.820;4.548;2022-12-07T05:42:57;22.83;;;13.07;;
11582;SDS011;34299;50.820;4.548;2022-12-07T05:45:24;23.50;;;13.40;;
11582;SDS011;34299;50.820;4.548;2022-12-07T05:47:51;19.63;;;11.87;;
11582;SDS011;34299;50.820;4.548;2022-12-07T05:50:20;20.40;;;12.60;;
11582;SDS011;34299;50.820;4.548;2022-12-07T05:52:47;19.37;;;12.43;;
11582;SDS011;34299;50.820;4.548;2022-12-07T05:55:14;20.60;;;13.00;;
11582;SDS011;34299;50.820;4.548;2022-12-07T05:57:41;20.57;;;13.13;;
11582;SDS011;34299;50.820;4.548;2022-12-07T06:00:29;16.90;;;11.93;;
11582;SDS011;34299;50.820;4.548;2022-12-07T06:02:55;20.40;;;12.67;;
11582;SDS011;34299;50.820;4.548;2022-12-07T06:05:24;20.47;;;11.87;;
11582;SDS011;34299;50.820;4.548;2022-12-07T06:07:51;13.80;;;11.37;;
11582;SDS011;34299;50.820;4.548;2022-12-07T06:10:18;18.03;;;12.13;;
11582;SDS011;34299;50.820;4.548;2022-12-07T06:12:45;17.03;;;12.10;;
11582;SDS011;34299;50.820;4.548;2022-12-07T06:15:11;21.50;;;12.87;;
11582;SDS011;34299;50.820;4.548;2022-12-07T06:17:39;21.43;;;12.67;;
11582;SDS011;34299;50.820;4.548;2022-12-07T06:20:06;16.73;;;11.63;;
11582;SDS011;34299;50.820;4.548;2022-12-07T06:22:35;18.83;;;12.20;;
11582;SDS011;34299;50.820;4.548;2022-12-07T06:25:02;21.17;;;12.73;;
11582;SDS011;34299;50.820;4.548;2022-12-07T06:27:29;18.80;;;12.67;;
11582;SDS011;34299;50.820;4.548;2022-12-07T06:29:58;20.40;;;11.67;;
11582;SDS011;34299;50.820;4.548;2022-12-07T06:32:30;18.77;;;12.07;;
11582;SDS011;34299;50.820;4.548;2022-12-07T06:34:57;18.83;;;11.77;;
11582;SDS011;34299;50.820;4.548;2022-12-07T06:37:24;18.73;;;12.17;;
11582;SDS011;34299;50.820;4.548;2022-12-07T06:39:53;16.47;;;11.67;;
11582;SDS011;34299;50.820;4.548;2022-12-07T06:42:21;13.40;;;10.10;;
11582;SDS011;34299;50.820;4.548;2022-12-07T06:44:48;22.00;;;11.07;;
11582;SDS011;34299;50.820;4.548;2022-12-07T06:47:15;15.00;;;10.50;;
11582;SDS011;34299;50.820;4.548;2022-12-07T06:49:42;21.33;;;11.57;;
11582;SDS011;34299;50.820;4.548;2022-12-07T06:52:09;17.97;;;11.13;;
11582;SDS011;34299;50.820;4.548;2022-12-07T06:54:37;15.07;;;10.50;;
11582;SDS011;34299;50.820;4.548;2022-12-07T06:57:05;18.10;;;10.03;;
11582;SDS011;34299;50.820;4.548;2022-12-07T06:59:33;15.90;;;10.40;;
11582;SDS011;34299;50.820;4.548;2022-12-07T07:02:00;15.23;;;10.60;;
11582;SDS011;34299;50.820;4.548;2022-12-07T07:04:27;19.27;;;11.77;;
11582;SDS011;34299;50.820;4.548;2022-12-07T07:06:54;15.33;;;10.80;;
11582;SDS011;34299;50.820;4.548;2022-12-07T07:09:21;15.93;;;11.33;;
11582;SDS011;34299;50.820;4.548;2022-12-07T07:11:49;15.83;;;10.93;;
11582;SDS011;34299;50.820;4.548;2022-12-07T07:14:17;15.37;;;10.87;;
11582;SDS011;34299;50.820;4.548;2022-12-07T07:16:46;18.63;;;11.00;;
11582;SDS011;34299;50.820;4.548;2022-12-07T07:19:13;19.63;;;11.37;;
11582;SDS011;34299;50.820;4.548;2022-12-07T07:21:40;19.07;;;11.50;;
11582;SDS011;34299;50.820;4.548;2022-12-07T07:24:07;16.23;;;10.93;;
11582;SDS011;34299;50.820;4.548;2022-12-07T07:26:35;15.40;;;10.47;;
11582;SDS011;34299;50.820;4.548;2022-12-07T07:29:02;22.07;;;11.77;;
11582;SDS011;34299;50.820;4.548;2022-12-07T07:31:31;14.93;;;10.63;;
11582;SDS011;34299;50.820;4.548;2022-12-07T07:34:00;21.03;;;11.87;;
11582;SDS011;34299;50.820;4.548;2022-12-07T07:36:27;19.63;;;11.40;;
11582;SDS011;34299;50.820;4.548;2022-12-07T07:38:54;16.07;;;10.07;;
11582;SDS011;34299;50.820;4.548;2022-12-07T07:41:22;13.87;;;9.30;;
11582;SDS011;34299;50.820;4.548;2022-12-07T07:43:49;10.47;;;6.57;;
11582;SDS011;34299;50.820;4.548;2022-12-07T07:46:16;7.37;;;5.17;;
11582;SDS011;34299;50.820;4.548;2022-12-07T07:48:45;11.47;;;6.13;;
11582;SDS011;34299;50.820;4.548;2022-12-07T07:51:12;12.47;;;7.00;;
11582;SDS011;34299;50.820;4.548;2022-12-07T07:53:39;10.70;;;7.50;;
11582;SDS011;34299;50.820;4.548;2022-12-07T07:56:06;9.20;;;6.40;;
11582;SDS011;34299;50.820;4.548;2022-12-07T07:58:34;10.07;;;7.13;;
11582;SDS011;34299;50.820;4.548;2022-12-07T08:01:03;10.30;;;6.10;;
11582;SDS011;34299;50.820;4.548;2022-12-07T08:03:30;8.93;;;6.10;;
11582;SDS011;34299;50.820;4.548;2022-12-07T08:05:59;8.77;;;5.90;;
11582;SDS011;34299;50.820;4.548;2022-12-07T08:08:26;9.10;;;5.07;;
11582;SDS011;34299;50.820;4.548;2022-12-07T08:10:53;8.03;;;5.90;;
11582;SDS011;34299;50.820;4.548;2022-12-07T08:13:20;8.80;;;5.13;;
11582;SDS011;34299;50.820;4.548;2022-12-07T08:15:48;7.13;;;5.13;;
11582;SDS011;34299;50.820;4.548;2022-12-07T08:18:15;8.80;;;4.77;;
11582;SDS011;34299;50.820;4.548;2022-12-07T08:20:42;12.07;;;5.23;;
11582;SDS011;34299;50.820;4.548;2022-12-07T08:23:11;7.73;;;4.90;;
11582;SDS011;34299;50.820;4.548;2022-12-07T08:25:38;8.93;;;6.13;;
11582;SDS011;34299;50.820;4.548;2022-12-07T08:28:06;6.57;;;5.23;;
11582;SDS011;34299;50.820;4.548;2022-12-07T08:30:33;5.97;;;5.17;;
11582;SDS011;34299;50.820;4.548;2022-12-07T08:33:00;7.90;;;5.50;;
11582;SDS011;34299;50.820;4.548;2022-12-07T08:35:27;8.33;;;4.83;;
11582;SDS011;34299;50.820;4.548;2022-12-07T08:37:55;9.83;;;6.47;;
11582;SDS011;34299;50.820;4.548;2022-12-07T08:40:24;7.77;;;4.93;;
11582;SDS011;34299;50.820;4.548;2022-12-07T08:42:51;5.37;;;4.23;;
11582;SDS011;34299;50.820;4.548;2022-12-07T08:45:19;6.73;;;5.00;;
11582;SDS011;34299;50.820;4.548;2022-12-07T08:47:47;11.80;;;5.27;;
11582;SDS011;34299;50.820;4.548;2022-12-07T08:50:15;9.07;;;5.63;;
11582;SDS011;34299;50.820;4.548;2022-12-07T08:52:43;9.87;;;5.37;;
11582;SDS011;34299;50.820;4.548;2022-12-07T08:55:10;8.80;;;5.10;;
11582;SDS011;34299;50.820;4.548;2022-12-07T08:57:39;11.20;;;5.77;;
11582;SDS011;34299;50.820;4.548;2022-12-07T09:00:08;8.50;;;5.50;;
11582;SDS011;34299;50.820;4.548;2022-12-07T09:02:35;9.07;;;4.83;;
11582;SDS011;34299;50.820;4.548;2022-12-07T09:05:03;9.07;;;5.17;;
11582;SDS011;34299;50.820;4.548;2022-12-07T09:07:30;14.23;;;6.73;;
11582;SDS011;34299;50.820;4.548;2022-12-07T09:09:59;9.37;;;5.87;;
11582;SDS011;34299;50.820;4.548;2022-12-07T09:12:26;8.50;;;5.67;;
11582;SDS011;34299;50.820;4.548;2022-12-07T09:14:54;9.33;;;6.10;;
11582;SDS011;34299;50.820;4.548;2022-12-07T09:17:22;9.40;;;4.80;;
11582;SDS011;34299;50.820;4.548;2022-12-07T09:19:49;10.30;;;5.73;;
11582;SDS011;34299;50.820;4.548;2022-12-07T09:22:16;6.37;;;4.87;;
11582;SDS011;34299;50.820;4.548;2022-12-07T09:24:43;7.37;;;5.20;;
11582;SDS011;34299;50.820;4.548;2022-12-07T09:27:11;9.93;;;5.77;;
11582;SDS011;34299;50.820;4.548;2022-12-07T09:29:38;10.80;;;6.97;;
11582;SDS011;34299;50.820;4.548;2022-12-07T09:32:07;12.13;;;5.13;;
11582;SDS011;34299;50.820;4.548;2022-12-07T09:34:34;10.63;;;6.17;;
11582;SDS011;34299;50.820;4.548;2022-12-07T09:37:01;8.93;;;6.20;;
11582;SDS011;34299;50.820;4.548;2022-12-07T09:39:29;7.77;;;5.70;;
11582;SDS011;34299;50.820;4.548;2022-12-07T09:41:56;9.80;;;5.73;;
11582;SDS011;34299;50.820;4.548;2022-12-07T09:44:25;7.93;;;6.30;;
11582;SDS011;34299;50.820;4.548;2022-12-07T09:46:52;11.23;;;5.43;;
11582;SDS011;34299;50.820;4.548;2022-12-07T09:49:21;8.33;;;5.80;;
11582;SDS011;34299;50.820;4.548;2022-12-07T09:51:59;9.27;;;5.90;;
11582;SDS011;34299;50.820;4.548;2022-12-07T09:54:27;10.67;;;6.10;;
11582;SDS011;34299;50.820;4.548;2022-12-07T09:56:55;15.47;;;6.33;;
11582;SDS011;34299;50.820;4.548;2022-12-07T09:59:22;16.37;;;6.63;;
11582;SDS011;34299;50.820;4.548;2022-12-07T10:01:49;10.47;;;4.87;;
11582;SDS011;34299;50.820;4.548;2022-12-07T10:04:18;9.10;;;5.83;;
11582;SDS011;34299;50.820;4.548;2022-12-07T10:06:47;9.63;;;5.40;;
11582;SDS011;34299;50.820;4.548;2022-12-07T10:09:16;11.07;;;6.03;;
11582;SDS011;34299;50.820;4.548;2022-12-07T10:12:00;7.97;;;6.00;;
11582;SDS011;34299;50.820;4.548;2022-12-07T10:14:28;11.43;;;5.77;;
11582;SDS011;34299;50.820;4.548;2022-12-07T10:16:56;9.73;;;5.50;;
11582;SDS011;34299;50.820;4.548;2022-12-07T10:19:24;10.93;;;6.37;;
11582;SDS011;34299;50.820;4.548;2022-12-07T10:22:09;11.80;;;6.00;;
11582;SDS011;34299;50.820;4.548;2022-12-07T10:24:37;8.67;;;5.73;;
11582;SDS011;34299;50.820;4.548;2022-12-07T10:27:10;12.90;;;6.20;;
11582;SDS011;34299;50.820;4.548;2022-12-07T10:29:46;9.43;;;6.33;;
11582;SDS011;34299;50.820;4.548;2022-12-07T10:32:26;6.60;;;5.20;;
11582;SDS011;34299;50.820;4.548;2022-12-07T10:34:59;9.57;;;6.03;;
11582;SDS011;34299;50.820;4.548;2022-12-07T10:37:46;8.50;;;5.63;;
11582;SDS011;34299;50.820;4.548;2022-12-07T10:40:23;9.63;;;6.23;;
11582;SDS011;34299;50.820;4.548;2022-12-07T10:43:00;9.47;;;5.07;;
11582;SDS011;34299;50.820;4.548;2022-12-07T10:45:27;8.43;;;4.43;;
11582;SDS011;34299;50.820;4.548;2022-12-07T10:47:55;6.90;;;4.50;;
11582;SDS011;34299;50.820;4.548;2022-12-07T10:50:38;9.27;;;4.30;;
11582;SDS011;34299;50.820;4.548;2022-12-07T10:53:13;5.23;;;3.60;;
11582;SDS011;34299;50.820;4.548;2022-12-07T10:55:52;6.17;;;3.83;;
11582;SDS011;34299;50.820;4.548;2022-12-07T10:58:29;6.73;;;4.07;;
11582;SDS011;34299;50.820;4.548;2022-12-07T11:01:00;6.17;;;3.50;;
11582;SDS011;34299;50.820;4.548;2022-12-07T11:03:44;5.13;;;3.60;;
11582;SDS011;34299;50.820;4.548;2022-12-07T11:06:18;6.23;;;3.40;;
11582;SDS011;34299;50.820;4.548;2022-12-07T11:08:54;5.57;;;3.70;;
11582;SDS011;34299;50.820;4.548;2022-12-07T11:11:26;7.57;;;3.70;;
11582;SDS011;34299;50.820;4.548;2022-12-07T11:13:56;5.57;;;3.50;;
11582;SDS011;34299;50.820;4.548;2022-12-07T11:16:30;8.03;;;4.07;;
11582;SDS011;34299;50.820;4.548;2022-12-07T11:19:04;5.13;;;3.90;;
11582;SDS011;34299;50.820;4.548;2022-12-07T11:21:35;5.23;;;3.70;;
11582;SDS011;34299;50.820;4.548;2022-12-07T11:24:08;7.80;;;3.97;;
11582;SDS011;34299;50.820;4.548;2022-12-07T11:26:50;7.43;;;3.63;;
11582;SDS011;34299;50.820;4.548;2022-12-07T11:29:27;5.97;;;2.80;;
11582;SDS011;34299;50.820;4.548;2022-12-07T11:31:58;4.93;;;2.47;;
11582;SDS011;34299;50.820;4.548;2022-12-07T11:34:31;4.07;;;2.73;;
11582;SDS011;34299;50.820;4.548;2022-12-07T11:37:01;5.07;;;3.03;;
11582;SDS011;34299;50.820;4.548;2022-12-07T11:39:33;6.43;;;3.07;;
11582;SDS011;34299;50.820;4.548;2022-12-07T11:42:01;7.20;;;3.30;;
11582;SDS011;34299;50.820;4.548;2022-12-07T11:44:31;4.17;;;3.27;;
11582;SDS011;34299;50.820;4.548;2022-12-07T11:47:02;4.40;;;2.53;;
11582;SDS011;34299;50.820;4.548;2022-12-07T11:49:37;5.20;;;2.80;;
11582;SDS011;34299;50.820;4.548;2022-12-07T11:52:09;2.73;;;2.30;;
11582;SDS011;34299;50.820;4.548;2022-12-07T11:54:43;4.47;;;2.57;;
11582;SDS011;34299;50.820;4.548;2022-12-07T11:57:15;4.23;;;2.80;;
11582;SDS011;34299;50.820;4.548;2022-12-07T11:59:45;4.30;;;2.63;;
11582;SDS011;34299;50.820;4.548;2022-12-07T12:02:15;2.70;;;2.43;;
11582;SDS011;34299;50.820;4.548;2022-12-07T12:04:48;4.63;;;2.60;;
11582;SDS011;34299;50.820;4.548;2022-12-07T12:07:19;5.13;;;3.17;;
11582;SDS011;34299;50.820;4.548;2022-12-07T12:09:49;3.83;;;2.50;;
11582;SDS011;34299;50.820;4.548;2022-12-07T12:12:29;5.87;;;2.67;;
11582;SDS011;34299;50.820;4.548;2022-12-07T12:15:02;5.73;;;2.23;;
11582;SDS011;34299;50.820;4.548;2022-12-07T12:20:19;5.20;;;2.10;;
11582;SDS011;34299;50.820;4.548;2022-12-07T12:22:48;5.83;;;2.83;;
11582;SDS011;34299;50.820;4.548;2022-12-07T12:25:20;3.47;;;2.40;;
11582;SDS011;34299;50.820;4.548;2022-12-07T12:27:48;3.57;;;2.50;;
11582;SDS011;34299;50.820;4.548;2022-12-07T12:30:24;3.67;;;2.33;;
11582;SDS011;34299;50.820;4.548;2022-12-07T12:32:52;6.30;;;2.80;;
11582;SDS011;34299;50.820;4.548;2022-12-07T12:35:21;2.87;;;2.07;;
11582;SDS011;34299;50.820;4.548;2022-12-07T12:37:49;5.13;;;2.20;;
11582;SDS011;34299;50.820;4.548;2022-12-07T12:40:42;3.47;;;2.40;;
11582;SDS011;34299;50.820;4.548;2022-12-07T12:48:37;3.60;;;2.10;;
11582;SDS011;34299;50.820;4.548;2022-12-07T12:53:50;4.33;;;2.30;;
11582;SDS011;34299;50.820;4.548;2022-12-07T12:56:28;5.07;;;2.00;;
11582;SDS011;34299;50.820;4.548;2022-12-07T13:01:45;3.40;;;1.63;;
11582;SDS011;34299;50.820;4.548;2022-12-07T13:06:59;4.97;;;2.03;;
11582;SDS011;34299;50.820;4.548;2022-12-07T13:09:27;2.83;;;1.43;;
11582;SDS011;34299;50.820;4.548;2022-12-07T13:11:59;4.33;;;1.67;;
11582;SDS011;34299;50.820;4.548;2022-12-07T13:17:10;1.80;;;1.43;;
11582;SDS011;34299;50.820;4.548;2022-12-07T13:25:12;5.80;;;1.43;;
11582;SDS011;34299;50.820;4.548;2022-12-07T13:27:48;2.37;;;1.20;;
11582;SDS011;34299;50.820;4.548;2022-12-07T13:30:20;2.40;;;1.40;;
11582;SDS011;34299;50.820;4.548;2022-12-07T13:32:50;2.23;;;1.83;;
11582;SDS011;34299;50.820;4.548;2022-12-07T13:35:27;3.57;;;1.73;;
11582;SDS011;34299;50.820;4.548;2022-12-07T13:37:54;2.10;;;1.30;;
11582;SDS011;34299;50.820;4.548;2022-12-07T13:40:22;4.67;;;2.03;;
11582;SDS011;34299;50.820;4.548;2022-12-07T13:42:58;1.97;;;1.30;;
11582;SDS011;34299;50.820;4.548;2022-12-07T13:45:26;3.37;;;1.50;;
11582;SDS011;34299;50.820;4.548;2022-12-07T13:48:08;2.33;;;2.13;;
11582;SDS011;34299;50.820;4.548;2022-12-07T13:50:37;2.33;;;1.43;;
11582;SDS011;34299;50.820;4.548;2022-12-07T13:53:10;4.13;;;1.10;;
11582;SDS011;34299;50.820;4.548;2022-12-07T13:55:38;4.00;;;1.17;;
11582;SDS011;34299;50.820;4.548;2022-12-07T13:58:12;4.13;;;1.20;;
11582;SDS011;34299;50.820;4.548;2022-12-07T14:00:40;2.03;;;1.13;;
11582;SDS011;34299;50.820;4.548;2022-12-07T14:03:20;1.50;;;1.40;;
11582;SDS011;34299;50.820;4.548;2022-12-07T14:06:02;3.73;;;1.30;;
11582;SDS011;34299;50.820;4.548;2022-12-07T14:08:30;3.83;;;1.30;;
11582;SDS011;34299;50.820;4.548;2022-12-07T14:10:57;1.60;;;1.50;;
11582;SDS011;34299;50.820;4.548;2022-12-07T14:13:29;2.27;;;1.83;;
11582;SDS011;34299;50.820;4.548;2022-12-07T14:15:59;4.43;;;1.67;;
11582;SDS011;34299;50.820;4.548;2022-12-07T14:18:26;4.60;;;1.50;;
11582;SDS011;34299;50.820;4.548;2022-12-07T14:21:02;1.97;;;1.30;;
11582;SDS011;34299;50.820;4.548;2022-12-07T14:23:29;5.50;;;1.60;;
11582;SDS011;34299;50.820;4.548;2022-12-07T14:26:04;1.87;;;1.60;;
11582;SDS011;34299;50.820;4.548;2022-12-07T14:28:34;2.57;;;1.60;;
11582;SDS011;34299;50.820;4.548;2022-12-07T14:31:02;6.00;;;2.13;;
11582;SDS011;34299;50.820;4.548;2022-12-07T14:33:30;1.57;;;1.47;;
11582;SDS011;34299;50.820;4.548;2022-12-07T14:35:57;1.23;;;0.87;;
11582;SDS011;34299;50.820;4.548;2022-12-07T14:38:25;2.13;;;1.30;;
11582;SDS011;34299;50.820;4.548;2022-12-07T14:40:53;1.10;;;1.00;;
11582;SDS011;34299;50.820;4.548;2022-12-07T14:43:41;0.60;;;0.60;;
11582;SDS011;34299;50.820;4.548;2022-12-07T14:46:09;1.37;;;0.93;;
11582;SDS011;34299;50.820;4.548;2022-12-07T14:48:36;1.10;;;1.00;;
11582;SDS011;34299;50.820;4.548;2022-12-07T14:51:03;1.70;;;1.60;;
11582;SDS011;34299;50.820;4.548;2022-12-07T14:53:33;1.40;;;1.30;;
11582;SDS011;34299;50.820;4.548;2022-12-07T14:56:02;1.20;;;1.20;;
11582;SDS011;34299;50.820;4.548;2022-12-07T14:58:31;1.70;;;1.00;;
11582;SDS011;34299;50.820;4.548;2022-12-07T15:01:00;1.60;;;1.50;;
11582;SDS011;34299;50.820;4.548;2022-12-07T15:03:27;1.40;;;1.30;;
11582;SDS011;34299;50.820;4.548;2022-12-07T15:05:54;1.90;;;1.77;;
11582;SDS011;34299;50.820;4.548;2022-12-07T15:08:22;1.63;;;1.50;;
11582;SDS011;34299;50.820;4.548;2022-12-07T15:10:49;5.63;;;1.97;;
11582;SDS011;34299;50.820;4.548;2022-12-07T15:13:16;1.70;;;1.60;;
11582;SDS011;34299;50.820;4.548;2022-12-07T15:16:02;1.90;;;1.70;;
11582;SDS011;34299;50.820;4.548;2022-12-07T15:18:30;2.10;;;2.00;;